sensor_id;sensor_type;location;lat;lon;timestamp;temperature;humidity
34008;DHT22;41085;51.594;7.138;2023-03-01T00:01:52;16.20;91.60
34008;DHT22;41085;51.594;7.138;2023-03-01T00:05:53;15.50;92.40
34008;DHT22;41085;51.594;7.138;2023-03-01T00:09:54;14.90;91.30
34008;DHT22;41085;51.594;7.138;2023-03-01T00:14:00;17.40;92.40
34008;DHT22;41085;51.594;7.138;2023-03-01T00:18:01;14.80;90.10
34008;DHT22;41085;51.594;7.138;2023-03-01T00:22:05;16.80;93.60
34008;DHT22;41085;51.594;7.138;2023-03-01T00:26:08;15.40;93.40
34008;DHT22;41085;51.594;7.138;2023-03-01T00:30:10;12.30;90.40
34008;DHT22;41085;51.594;7.138;2023-03-01T00:34:11;15.20;89.60
34008;DHT22;41085;51.594;7.138;2023-03-01T00:38:12;18.50;91.60
34008;DHT22;41085;51.594;7.138;2023-03-01T00:42:12;18.20;91.00
34008;DHT22;41085;51.594;7.138;2023-03-01T00:46:18;16.20;90.50
34008;DHT22;41085;51.594;7.138;2023-03-01T00:50:19;17.10;89.40
34008;DHT22;41085;51.594;7.138;2023-03-01T00:54:20;16.40;90.40
34008;DHT22;41085;51.594;7.138;2023-03-01T00:58:20;18.80;91.40
34008;DHT22;41085;51.594;7.138;2023-03-01T01:02:21;17.90;90.60
34008;DHT22;41085;51.594;7.138;2023-03-01T01:06:27;17.50;90.20
34008;DHT22;41085;51.594;7.138;2023-03-01T01:10:28;18.00;89.90
34008;DHT22;41085;51.594;7.138;2023-03-01T01:14:29;18.00;90.40
34008;DHT22;41085;51.594;7.138;2023-03-01T01:18:30;17.10;93.20
34008;DHT22;41085;51.594;7.138;2023-03-01T01:22:30;17.00;93.30
34008;DHT22;41085;51.594;7.138;2023-03-01T01:26:33;17.80;90.80
34008;DHT22;41085;51.594;7.138;2023-03-01T01:30:43;17.80;89.20
34008;DHT22;41085;51.594;7.138;2023-03-01T01:34:44;14.60;91.70
34008;DHT22;41085;51.594;7.138;2023-03-01T01:38:49;16.30;92.10
34008;DHT22;41085;51.594;7.138;2023-03-01T01:42:53;17.40;94.70
34008;DHT22;41085;51.594;7.138;2023-03-01T01:47:02;17.50;91.20
34008;DHT22;41085;51.594;7.138;2023-03-01T01:51:04;15.70;87.20
34008;DHT22;41085;51.594;7.138;2023-03-01T01:55:07;13.20;91.30
34008;DHT22;41085;51.594;7.138;2023-03-01T01:59:09;17.10;90.10
34008;DHT22;41085;51.594;7.138;2023-03-01T02:03:13;16.00;89.40
34008;DHT22;41085;51.594;7.138;2023-03-01T02:07:17;18.50;90.20
34008;DHT22;41085;51.594;7.138;2023-03-01T02:11:18;18.60;89.50
34008;DHT22;41085;51.594;7.138;2023-03-01T02:15:19;15.80;88.50
34008;DHT22;41085;51.594;7.138;2023-03-01T02:28:49;20.20;89.20
34008;DHT22;41085;51.594;7.138;2023-03-01T02:48:19;17.90;87.50
34008;DHT22;41085;51.594;7.138;2023-03-01T02:52:55;15.20;91.60
34008;DHT22;41085;51.594;7.138;2023-03-01T02:57:52;16.00;86.40
34008;DHT22;41085;51.594;7.138;2023-03-01T03:02:28;14.60;85.60
34008;DHT22;41085;51.594;7.138;2023-03-01T03:06:53;14.70;89.50
34008;DHT22;41085;51.594;7.138;2023-03-01T03:11:08;17.90;87.70
34008;DHT22;41085;51.594;7.138;2023-03-01T03:15:19;16.80;89.10
34008;DHT22;41085;51.594;7.138;2023-03-01T03:19:36;15.80;87.30
34008;DHT22;41085;51.594;7.138;2023-03-01T03:23:38;16.90;89.50
34008;DHT22;41085;51.594;7.138;2023-03-01T03:27:40;16.00;86.50
34008;DHT22;41085;51.594;7.138;2023-03-01T03:31:41;17.30;87.10
34008;DHT22;41085;51.594;7.138;2023-03-01T03:35:44;16.10;86.90
34008;DHT22;41085;51.594;7.138;2023-03-01T03:39:45;17.90;87.40
34008;DHT22;41085;51.594;7.138;2023-03-01T03:43:45;17.20;88.00
34008;DHT22;41085;51.594;7.138;2023-03-01T03:47:46;17.50;87.80
34008;DHT22;41085;51.594;7.138;2023-03-01T03:51:56;16.40;88.50
34008;DHT22;41085;51.594;7.138;2023-03-01T03:56:00;17.30;90.90
34008;DHT22;41085;51.594;7.138;2023-03-01T04:00:00;17.50;89.30
34008;DHT22;41085;51.594;7.138;2023-03-01T04:04:03;16.50;90.00
34008;DHT22;41085;51.594;7.138;2023-03-01T04:08:08;14.10;90.70
34008;DHT22;41085;51.594;7.138;2023-03-01T04:12:23;16.20;86.10
34008;DHT22;41085;51.594;7.138;2023-03-01T05:04:44;15.80;85.20
34008;DHT22;41085;51.594;7.138;2023-03-01T05:09:05;15.90;86.10
34008;DHT22;41085;51.594;7.138;2023-03-01T05:13:06;15.60;85.00
34008;DHT22;41085;51.594;7.138;2023-03-01T05:17:07;17.40;89.20
34008;DHT22;41085;51.594;7.138;2023-03-01T05:21:10;18.20;88.70
34008;DHT22;41085;51.594;7.138;2023-03-01T05:25:11;16.70;86.00
34008;DHT22;41085;51.594;7.138;2023-03-01T05:29:14;17.60;87.20
34008;DHT22;41085;51.594;7.138;2023-03-01T05:33:14;15.60;86.00
34008;DHT22;41085;51.594;7.138;2023-03-01T05:37:15;17.10;87.30
34008;DHT22;41085;51.594;7.138;2023-03-01T05:41:16;18.00;87.50
34008;DHT22;41085;51.594;7.138;2023-03-01T05:45:26;16.40;89.30
34008;DHT22;41085;51.594;7.138;2023-03-01T09:30:22;15.90;86.50
34008;DHT22;41085;51.594;7.138;2023-03-01T17:42:24;15.20;87.90
34008;DHT22;41085;51.594;7.138;2023-03-01T17:46:46;15.00;89.00
34008;DHT22;41085;51.594;7.138;2023-03-01T17:50:58;14.90;90.40
34008;DHT22;41085;51.594;7.138;2023-03-01T17:55:33;15.20;89.30
34008;DHT22;41085;51.594;7.138;2023-03-01T18:00:02;15.10;88.10
34008;DHT22;41085;51.594;7.138;2023-03-01T18:04:29;14.90;88.20
34008;DHT22;41085;51.594;7.138;2023-03-01T18:08:31;15.80;88.80
34008;DHT22;41085;51.594;7.138;2023-03-01T18:12:42;15.30;90.00
34008;DHT22;41085;51.594;7.138;2023-03-01T18:16:45;18.00;90.70
34008;DHT22;41085;51.594;7.138;2023-03-01T18:21:28;19.00;90.90
34008;DHT22;41085;51.594;7.138;2023-03-01T18:25:37;15.20;88.60
34008;DHT22;41085;51.594;7.138;2023-03-01T18:29:43;15.30;89.40
34008;DHT22;41085;51.594;7.138;2023-03-01T18:34:01;15.10;91.00
34008;DHT22;41085;51.594;7.138;2023-03-01T18:38:01;17.80;90.40
34008;DHT22;41085;51.594;7.138;2023-03-01T18:42:13;14.90;91.00
34008;DHT22;41085;51.594;7.138;2023-03-01T18:46:15;15.60;91.20
34008;DHT22;41085;51.594;7.138;2023-03-01T18:50:35;15.90;91.70
34008;DHT22;41085;51.594;7.138;2023-03-01T18:59:58;15.20;89.00
34008;DHT22;41085;51.594;7.138;2023-03-01T19:04:21;14.90;90.80
34008;DHT22;41085;51.594;7.138;2023-03-01T19:08:41;17.70;90.80
34008;DHT22;41085;51.594;7.138;2023-03-01T19:12:45;15.10;89.20
34008;DHT22;41085;51.594;7.138;2023-03-01T19:17:47;15.00;91.40
34008;DHT22;41085;51.594;7.138;2023-03-01T19:22:45;15.40;89.40
34008;DHT22;41085;51.594;7.138;2023-03-01T19:27:42;14.60;91.60
34008;DHT22;41085;51.594;7.138;2023-03-01T19:32:10;15.60;89.50
34008;DHT22;41085;51.594;7.138;2023-03-01T19:36:33;15.40;89.50
34008;DHT22;41085;51.594;7.138;2023-03-01T19:41:14;15.10;91.30
34008;DHT22;41085;51.594;7.138;2023-03-01T19:46:07;16.00;90.80
34008;DHT22;41085;51.594;7.138;2023-03-01T19:50:50;14.50;89.00
34008;DHT22;41085;51.594;7.138;2023-03-01T19:56:00;14.90;89.60
34008;DHT22;41085;51.594;7.138;2023-03-01T20:00:11;15.10;89.40
34008;DHT22;41085;51.594;7.138;2023-03-01T20:04:57;15.10;89.60
34008;DHT22;41085;51.594;7.138;2023-03-01T20:09:32;15.50;89.90
34008;DHT22;41085;51.594;7.138;2023-03-01T20:14:20;14.60;89.40
34008;DHT22;41085;51.594;7.138;2023-03-01T20:18:21;15.30;89.90
34008;DHT22;41085;51.594;7.138;2023-03-01T20:22:22;18.40;92.80
34008;DHT22;41085;51.594;7.138;2023-03-01T20:26:23;14.90;91.20
34008;DHT22;41085;51.594;7.138;2023-03-01T20:30:24;17.80;91.30
34008;DHT22;41085;51.594;7.138;2023-03-01T20:34:25;16.80;90.90
34008;DHT22;41085;51.594;7.138;2023-03-01T20:38:29;16.60;92.00
34008;DHT22;41085;51.594;7.138;2023-03-01T20:42:33;15.40;93.50
34008;DHT22;41085;51.594;7.138;2023-03-01T20:46:34;16.00;91.60
34008;DHT22;41085;51.594;7.138;2023-03-01T20:50:39;17.20;91.00
34008;DHT22;41085;51.594;7.138;2023-03-01T20:54:42;17.90;90.80
34008;DHT22;41085;51.594;7.138;2023-03-01T20:58:49;16.90;91.80
34008;DHT22;41085;51.594;7.138;2023-03-01T21:02:50;18.30;92.90
34008;DHT22;41085;51.594;7.138;2023-03-01T21:06:51;18.30;93.20
34008;DHT22;41085;51.594;7.138;2023-03-01T21:10:52;15.20;93.40
34008;DHT22;41085;51.594;7.138;2023-03-01T21:14:53;17.00;91.80
34008;DHT22;41085;51.594;7.138;2023-03-01T21:18:54;18.00;95.10
34008;DHT22;41085;51.594;7.138;2023-03-01T21:22:55;16.90;92.50
34008;DHT22;41085;51.594;7.138;2023-03-01T21:26:58;15.30;92.20
34008;DHT22;41085;51.594;7.138;2023-03-01T21:31:10;16.70;91.90
34008;DHT22;41085;51.594;7.138;2023-03-01T21:35:12;15.10;88.60
34008;DHT22;41085;51.594;7.138;2023-03-01T21:39:12;14.70;90.50
34008;DHT22;41085;51.594;7.138;2023-03-01T21:43:14;18.10;92.50
34008;DHT22;41085;51.594;7.138;2023-03-01T21:47:14;17.00;91.10
34008;DHT22;41085;51.594;7.138;2023-03-01T21:51:16;17.90;91.90
34008;DHT22;41085;51.594;7.138;2023-03-01T21:55:17;16.20;90.20
34008;DHT22;41085;51.594;7.138;2023-03-01T21:59:22;17.20;90.90
34008;DHT22;41085;51.594;7.138;2023-03-01T22:03:26;16.60;90.50
34008;DHT22;41085;51.594;7.138;2023-03-01T22:07:29;15.30;90.60
34008;DHT22;41085;51.594;7.138;2023-03-01T22:11:30;18.30;93.10
34008;DHT22;41085;51.594;7.138;2023-03-01T22:15:31;18.10;91.30
34008;DHT22;41085;51.594;7.138;2023-03-01T22:19:32;17.10;92.00
34008;DHT22;41085;51.594;7.138;2023-03-01T22:23:34;16.30;91.20
34008;DHT22;41085;51.594;7.138;2023-03-01T22:27:35;16.30;90.30
34008;DHT22;41085;51.594;7.138;2023-03-01T22:31:37;17.20;92.00
34008;DHT22;41085;51.594;7.138;2023-03-01T22:35:40;17.20;90.20
34008;DHT22;41085;51.594;7.138;2023-03-01T22:39:43;17.10;90.30
34008;DHT22;41085;51.594;7.138;2023-03-01T22:43:44;17.20;92.10
34008;DHT22;41085;51.594;7.138;2023-03-01T22:47:44;16.50;90.80
34008;DHT22;41085;51.594;7.138;2023-03-01T22:51:45;16.50;90.50
34008;DHT22;41085;51.594;7.138;2023-03-01T22:55:46;15.20;89.50
34008;DHT22;41085;51.594;7.138;2023-03-01T22:59:47;17.30;90.60
34008;DHT22;41085;51.594;7.138;2023-03-01T23:03:48;16.20;90.80
34008;DHT22;41085;51.594;7.138;2023-03-01T23:07:48;17.10;90.80
34008;DHT22;41085;51.594;7.138;2023-03-01T23:11:50;16.60;91.20
34008;DHT22;41085;51.594;7.138;2023-03-01T23:15:55;17.60;91.30
34008;DHT22;41085;51.594;7.138;2023-03-01T23:19:55;18.30;91.10
34008;DHT22;41085;51.594;7.138;2023-03-01T23:23:56;17.50;91.30
34008;DHT22;41085;51.594;7.138;2023-03-01T23:27:56;16.30;90.70
34008;DHT22;41085;51.594;7.138;2023-03-01T23:31:58;17.20;90.80
34008;DHT22;41085;51.594;7.138;2023-03-01T23:35:58;15.00;92.50
34008;DHT22;41085;51.594;7.138;2023-03-01T23:40:02;18.00;91.10
34008;DHT22;41085;51.594;7.138;2023-03-01T23:44:05;15.10;90.10
34008;DHT22;41085;51.594;7.138;2023-03-01T23:48:06;16.80;91.50
34008;DHT22;41085;51.594;7.138;2023-03-01T23:52:07;17.00;92.20
34008;DHT22;41085;51.594;7.138;2023-03-01T23:56:16;15.40;91.10
